sensor_id;sensor_type;location;lat;lon;timestamp;P1;durP1;ratioP1;P2;durP2;ratioP2
68176;SDS011;56478;50.982;7.032;2023-02-13T00:00:30;10.60;;;7.07;;
68176;SDS011;56478;50.982;7.032;2023-02-13T00:02:58;10.82;;;6.32;;
68176;SDS011;56478;50.982;7.032;2023-02-13T00:05:23;11.20;;;7.07;;
68176;SDS011;56478;50.982;7.032;2023-02-13T00:07:49;11.88;;;6.78;;
68176;SDS011;56478;50.982;7.032;2023-02-13T00:10:14;10.85;;;7.15;;
68176;SDS011;56478;50.982;7.032;2023-02-13T00:12:40;12.35;;;7.95;;
68176;SDS011;56478;50.982;7.032;2023-02-13T00:15:06;11.20;;;7.03;;
68176;SDS011;56478;50.982;7.032;2023-02-13T00:17:32;10.43;;;6.90;;
68176;SDS011;56478;50.982;7.032;2023-02-13T00:19:58;12.23;;;7.07;;
68176;SDS011;56478;50.982;7.032;2023-02-13T00:22:24;11.25;;;6.80;;
68176;SDS011;56478;50.982;7.032;2023-02-13T00:24:50;11.57;;;7.40;;
68176;SDS011;56478;50.982;7.032;2023-02-13T00:27:15;11.93;;;7.43;;
68176;SDS011;56478;50.982;7.032;2023-02-13T00:29:41;11.93;;;7.10;;
68176;SDS011;56478;50.982;7.032;2023-02-13T00:32:06;10.60;;;6.63;;
68176;SDS011;56478;50.982;7.032;2023-02-13T00:34:32;12.10;;;7.25;;
68176;SDS011;56478;50.982;7.032;2023-02-13T00:36:58;10.05;;;7.10;;
68176;SDS011;56478;50.982;7.032;2023-02-13T00:39:24;10.07;;;6.85;;
68176;SDS011;56478;50.982;7.032;2023-02-13T00:41:49;10.18;;;7.05;;
68176;SDS011;56478;50.982;7.032;2023-02-13T00:44:15;11.30;;;7.00;;
68176;SDS011;56478;50.982;7.032;2023-02-13T00:46:40;10.63;;;7.13;;
68176;SDS011;56478;50.982;7.032;2023-02-13T00:49:06;10.88;;;7.03;;
68176;SDS011;56478;50.982;7.032;2023-02-13T00:51:31;10.10;;;6.88;;
68176;SDS011;56478;50.982;7.032;2023-02-13T00:53:57;11.13;;;7.55;;
68176;SDS011;56478;50.982;7.032;2023-02-13T00:56:23;9.05;;;6.63;;
68176;SDS011;56478;50.982;7.032;2023-02-13T00:58:48;10.02;;;6.55;;
68176;SDS011;56478;50.982;7.032;2023-02-13T01:01:14;9.10;;;6.53;;
68176;SDS011;56478;50.982;7.032;2023-02-13T01:03:39;9.60;;;6.22;;
68176;SDS011;56478;50.982;7.032;2023-02-13T01:06:05;10.35;;;6.97;;
68176;SDS011;56478;50.982;7.032;2023-02-13T01:08:31;8.63;;;5.82;;
68176;SDS011;56478;50.982;7.032;2023-02-13T01:10:57;9.05;;;5.70;;
68176;SDS011;56478;50.982;7.032;2023-02-13T01:13:23;10.60;;;6.43;;
68176;SDS011;56478;50.982;7.032;2023-02-13T01:15:49;9.48;;;6.05;;
68176;SDS011;56478;50.982;7.032;2023-02-13T01:18:15;12.70;;;7.13;;
68176;SDS011;56478;50.982;7.032;2023-02-13T01:20:43;9.32;;;5.82;;
68176;SDS011;56478;50.982;7.032;2023-02-13T01:23:09;11.35;;;7.10;;
68176;SDS011;56478;50.982;7.032;2023-02-13T01:25:38;12.55;;;6.90;;
68176;SDS011;56478;50.982;7.032;2023-02-13T01:28:05;10.20;;;6.32;;
68176;SDS011;56478;50.982;7.032;2023-02-13T01:30:30;8.95;;;6.65;;
68176;SDS011;56478;50.982;7.032;2023-02-13T01:32:56;10.27;;;6.72;;
68176;SDS011;56478;50.982;7.032;2023-02-13T01:35:22;11.65;;;6.65;;
68176;SDS011;56478;50.982;7.032;2023-02-13T01:37:47;8.95;;;6.22;;
68176;SDS011;56478;50.982;7.032;2023-02-13T01:40:13;11.00;;;6.57;;
68176;SDS011;56478;50.982;7.032;2023-02-13T01:42:39;10.98;;;6.85;;
68176;SDS011;56478;50.982;7.032;2023-02-13T01:45:16;10.32;;;6.20;;
68176;SDS011;56478;50.982;7.032;2023-02-13T01:47:43;9.57;;;6.22;;
68176;SDS011;56478;50.982;7.032;2023-02-13T01:50:31;9.13;;;6.25;;
68176;SDS011;56478;50.982;7.032;2023-02-13T01:53:21;9.63;;;6.15;;
68176;SDS011;56478;50.982;7.032;2023-02-13T01:55:55;9.18;;;6.25;;
68176;SDS011;56478;50.982;7.032;2023-02-13T01:58:28;8.57;;;6.05;;
68176;SDS011;56478;50.982;7.032;2023-02-13T02:00:58;10.05;;;6.25;;
68176;SDS011;56478;50.982;7.032;2023-02-13T02:03:33;9.63;;;6.50;;
68176;SDS011;56478;50.982;7.032;2023-02-13T02:06:01;9.57;;;6.35;;
68176;SDS011;56478;50.982;7.032;2023-02-13T02:08:28;8.48;;;6.55;;
68176;SDS011;56478;50.982;7.032;2023-02-13T02:10:55;6.35;;;5.13;;
68176;SDS011;56478;50.982;7.032;2023-02-13T02:13:27;6.93;;;5.00;;
68176;SDS011;56478;50.982;7.032;2023-02-13T02:15:53;6.82;;;5.32;;
68176;SDS011;56478;50.982;7.032;2023-02-13T02:18:20;9.05;;;5.68;;
68176;SDS011;56478;50.982;7.032;2023-02-13T02:20:54;10.80;;;6.18;;
68176;SDS011;56478;50.982;7.032;2023-02-13T02:51:09;7.07;;;5.30;;
68176;SDS011;56478;50.982;7.032;2023-02-13T02:53:39;7.93;;;6.25;;
68176;SDS011;56478;50.982;7.032;2023-02-13T02:56:13;7.15;;;5.45;;
68176;SDS011;56478;50.982;7.032;2023-02-13T02:58:49;9.43;;;6.35;;
68176;SDS011;56478;50.982;7.032;2023-02-13T03:01:38;7.88;;;5.65;;
68176;SDS011;56478;50.982;7.032;2023-02-13T03:04:24;9.95;;;6.43;;
68176;SDS011;56478;50.982;7.032;2023-02-13T03:07:14;8.93;;;6.80;;
68176;SDS011;56478;50.982;7.032;2023-02-13T03:09:42;9.05;;;7.07;;
68176;SDS011;56478;50.982;7.032;2023-02-13T03:12:34;9.02;;;6.05;;
68176;SDS011;56478;50.982;7.032;2023-02-13T03:15:23;7.95;;;6.65;;
68176;SDS011;56478;50.982;7.032;2023-02-13T03:17:50;6.80;;;5.25;;
68176;SDS011;56478;50.982;7.032;2023-02-13T03:20:54;9.05;;;6.80;;
68176;SDS011;56478;50.982;7.032;2023-02-13T03:24:03;8.93;;;6.47;;
68176;SDS011;56478;50.982;7.032;2023-02-13T03:26:41;7.60;;;6.78;;
68176;SDS011;56478;50.982;7.032;2023-02-13T03:35:06;8.40;;;6.60;;
68176;SDS011;56478;50.982;7.032;2023-02-13T03:38:00;7.05;;;5.80;;
68176;SDS011;56478;50.982;7.032;2023-02-13T03:40:36;9.38;;;7.13;;
68176;SDS011;56478;50.982;7.032;2023-02-13T03:43:26;9.15;;;6.22;;
68176;SDS011;56478;50.982;7.032;2023-02-13T03:45:56;8.40;;;6.05;;
68176;SDS011;56478;50.982;7.032;2023-02-13T03:48:26;9.30;;;6.72;;
68176;SDS011;56478;50.982;7.032;2023-02-13T03:51:25;7.88;;;6.13;;
68176;SDS011;56478;50.982;7.032;2023-02-13T03:53:56;8.85;;;6.38;;
68176;SDS011;56478;50.982;7.032;2023-02-13T03:56:26;9.18;;;6.80;;
68176;SDS011;56478;50.982;7.032;2023-02-13T03:59:15;8.23;;;6.22;;
68176;SDS011;56478;50.982;7.032;2023-02-13T04:01:59;10.25;;;6.82;;
68176;SDS011;56478;50.982;7.032;2023-02-13T04:04:39;7.25;;;6.10;;
68176;SDS011;56478;50.982;7.032;2023-02-13T04:07:18;9.45;;;6.85;;
68176;SDS011;56478;50.982;7.032;2023-02-13T04:10:03;10.07;;;6.57;;
68176;SDS011;56478;50.982;7.032;2023-02-13T04:12:35;8.60;;;6.70;;
68176;SDS011;56478;50.982;7.032;2023-02-13T04:18:16;10.25;;;6.82;;
68176;SDS011;56478;50.982;7.032;2023-02-13T04:20:45;8.60;;;6.45;;
68176;SDS011;56478;50.982;7.032;2023-02-13T04:23:11;8.35;;;5.80;;
68176;SDS011;56478;50.982;7.032;2023-02-13T04:25:37;9.30;;;7.07;;
68176;SDS011;56478;50.982;7.032;2023-02-13T04:28:05;9.05;;;6.07;;
68176;SDS011;56478;50.982;7.032;2023-02-13T04:30:31;9.85;;;7.20;;
68176;SDS011;56478;50.982;7.032;2023-02-13T04:32:57;10.15;;;6.75;;
68176;SDS011;56478;50.982;7.032;2023-02-13T04:35:23;9.60;;;6.72;;
68176;SDS011;56478;50.982;7.032;2023-02-13T04:37:49;9.07;;;6.90;;
68176;SDS011;56478;50.982;7.032;2023-02-13T04:40:14;8.52;;;6.70;;
68176;SDS011;56478;50.982;7.032;2023-02-13T04:42:40;9.07;;;7.50;;
68176;SDS011;56478;50.982;7.032;2023-02-13T04:45:05;10.05;;;7.03;;
68176;SDS011;56478;50.982;7.032;2023-02-13T04:47:31;9.95;;;7.07;;
68176;SDS011;56478;50.982;7.032;2023-02-13T04:49:57;8.65;;;7.22;;
68176;SDS011;56478;50.982;7.032;2023-02-13T04:52:22;7.97;;;5.78;;
68176;SDS011;56478;50.982;7.032;2023-02-13T04:54:48;9.63;;;6.82;;
68176;SDS011;56478;50.982;7.032;2023-02-13T04:57:14;9.15;;;7.00;;
68176;SDS011;56478;50.982;7.032;2023-02-13T04:59:40;8.63;;;6.28;;
68176;SDS011;56478;50.982;7.032;2023-02-13T05:02:05;9.98;;;7.40;;
68176;SDS011;56478;50.982;7.032;2023-02-13T05:04:31;8.38;;;6.82;;
68176;SDS011;56478;50.982;7.032;2023-02-13T05:06:57;9.10;;;7.40;;
68176;SDS011;56478;50.982;7.032;2023-02-13T05:09:22;9.45;;;6.75;;
68176;SDS011;56478;50.982;7.032;2023-02-13T05:11:51;8.02;;;6.45;;
68176;SDS011;56478;50.982;7.032;2023-02-13T05:14:17;8.18;;;6.40;;
68176;SDS011;56478;50.982;7.032;2023-02-13T05:16:43;9.10;;;6.88;;
68176;SDS011;56478;50.982;7.032;2023-02-13T05:19:08;11.20;;;7.53;;
68176;SDS011;56478;50.982;7.032;2023-02-13T05:21:34;8.95;;;6.93;;
68176;SDS011;56478;50.982;7.032;2023-02-13T05:24:18;9.13;;;6.60;;
68176;SDS011;56478;50.982;7.032;2023-02-13T05:26:44;10.20;;;7.53;;
68176;SDS011;56478;50.982;7.032;2023-02-13T05:29:09;9.95;;;7.05;;
68176;SDS011;56478;50.982;7.032;2023-02-13T05:31:47;10.60;;;7.07;;
68176;SDS011;56478;50.982;7.032;2023-02-13T05:34:14;10.90;;;7.60;;
68176;SDS011;56478;50.982;7.032;2023-02-13T05:36:40;9.85;;;7.40;;
68176;SDS011;56478;50.982;7.032;2023-02-13T05:39:06;11.57;;;7.60;;
68176;SDS011;56478;50.982;7.032;2023-02-13T05:41:32;8.82;;;6.82;;
68176;SDS011;56478;50.982;7.032;2023-02-13T05:43:57;10.88;;;7.70;;
68176;SDS011;56478;50.982;7.032;2023-02-13T05:46:23;12.77;;;7.40;;
68176;SDS011;56478;50.982;7.032;2023-02-13T05:48:50;10.10;;;7.65;;
68176;SDS011;56478;50.982;7.032;2023-02-13T05:51:16;10.50;;;7.32;;
68176;SDS011;56478;50.982;7.032;2023-02-13T05:53:43;11.15;;;7.55;;
68176;SDS011;56478;50.982;7.032;2023-02-13T05:56:08;10.02;;;7.70;;
68176;SDS011;56478;50.982;7.032;2023-02-13T05:58:34;11.60;;;7.50;;
68176;SDS011;56478;50.982;7.032;2023-02-13T06:01:00;9.70;;;7.28;;
68176;SDS011;56478;50.982;7.032;2023-02-13T06:03:26;11.25;;;7.18;;
68176;SDS011;56478;50.982;7.032;2023-02-13T06:05:53;9.30;;;6.93;;
68176;SDS011;56478;50.982;7.032;2023-02-13T06:08:20;12.40;;;6.85;;
68176;SDS011;56478;50.982;7.032;2023-02-13T06:10:46;11.85;;;7.53;;
68176;SDS011;56478;50.982;7.032;2023-02-13T06:13:12;10.43;;;7.45;;
68176;SDS011;56478;50.982;7.032;2023-02-13T06:15:38;10.50;;;7.55;;
68176;SDS011;56478;50.982;7.032;2023-02-13T06:18:04;11.57;;;7.70;;
68176;SDS011;56478;50.982;7.032;2023-02-13T06:20:30;11.20;;;7.47;;
68176;SDS011;56478;50.982;7.032;2023-02-13T06:22:55;9.73;;;6.72;;
68176;SDS011;56478;50.982;7.032;2023-02-13T06:25:21;10.82;;;7.55;;
68176;SDS011;56478;50.982;7.032;2023-02-13T06:27:47;8.90;;;6.90;;
68176;SDS011;56478;50.982;7.032;2023-02-13T06:30:13;10.75;;;7.13;;
68176;SDS011;56478;50.982;7.032;2023-02-13T06:32:40;11.18;;;7.43;;
68176;SDS011;56478;50.982;7.032;2023-02-13T06:35:06;11.75;;;7.70;;
68176;SDS011;56478;50.982;7.032;2023-02-13T06:37:32;11.95;;;7.72;;
68176;SDS011;56478;50.982;7.032;2023-02-13T06:39:58;14.88;;;7.97;;
68176;SDS011;56478;50.982;7.032;2023-02-13T06:42:24;9.68;;;6.07;;
68176;SDS011;56478;50.982;7.032;2023-02-13T06:44:49;11.57;;;7.78;;
68176;SDS011;56478;50.982;7.032;2023-02-13T06:47:15;9.50;;;7.03;;
68176;SDS011;56478;50.982;7.032;2023-02-13T06:49:41;10.35;;;7.35;;
68176;SDS011;56478;50.982;7.032;2023-02-13T06:52:06;9.85;;;7.15;;
68176;SDS011;56478;50.982;7.032;2023-02-13T06:54:32;10.32;;;7.60;;
68176;SDS011;56478;50.982;7.032;2023-02-13T06:56:58;11.52;;;7.63;;
68176;SDS011;56478;50.982;7.032;2023-02-13T06:59:24;11.07;;;7.53;;
68176;SDS011;56478;50.982;7.032;2023-02-13T07:01:49;10.55;;;7.97;;
68176;SDS011;56478;50.982;7.032;2023-02-13T07:04:15;10.45;;;7.18;;
68176;SDS011;56478;50.982;7.032;2023-02-13T07:06:41;10.90;;;6.88;;
68176;SDS011;56478;50.982;7.032;2023-02-13T07:09:06;12.45;;;7.50;;
68176;SDS011;56478;50.982;7.032;2023-02-13T07:11:32;11.95;;;7.85;;
68176;SDS011;56478;50.982;7.032;2023-02-13T07:13:58;10.48;;;6.82;;
68176;SDS011;56478;50.982;7.032;2023-02-13T07:16:23;12.23;;;8.00;;
68176;SDS011;56478;50.982;7.032;2023-02-13T07:18:59;11.23;;;7.25;;
68176;SDS011;56478;50.982;7.032;2023-02-13T07:21:28;12.38;;;7.82;;
68176;SDS011;56478;50.982;7.032;2023-02-13T07:23:53;13.35;;;8.07;;
68176;SDS011;56478;50.982;7.032;2023-02-13T07:26:19;12.70;;;7.97;;
68176;SDS011;56478;50.982;7.032;2023-02-13T07:28:45;11.73;;;8.27;;
68176;SDS011;56478;50.982;7.032;2023-02-13T07:31:10;12.95;;;7.90;;
68176;SDS011;56478;50.982;7.032;2023-02-13T07:33:36;12.60;;;8.32;;
68176;SDS011;56478;50.982;7.032;2023-02-13T07:36:02;12.35;;;8.55;;
68176;SDS011;56478;50.982;7.032;2023-02-13T07:38:32;12.30;;;8.80;;
68176;SDS011;56478;50.982;7.032;2023-02-13T07:41:09;12.88;;;7.35;;
68176;SDS011;56478;50.982;7.032;2023-02-13T07:43:35;11.10;;;7.95;;
68176;SDS011;56478;50.982;7.032;2023-02-13T07:46:01;11.35;;;7.93;;
68176;SDS011;56478;50.982;7.032;2023-02-13T07:48:28;16.15;;;8.40;;
68176;SDS011;56478;50.982;7.032;2023-02-13T07:51:00;11.63;;;7.68;;
68176;SDS011;56478;50.982;7.032;2023-02-13T07:53:27;11.80;;;7.95;;
68176;SDS011;56478;50.982;7.032;2023-02-13T07:55:53;11.35;;;7.65;;
68176;SDS011;56478;50.982;7.032;2023-02-13T07:58:18;10.27;;;7.68;;
68176;SDS011;56478;50.982;7.032;2023-02-13T08:00:45;10.43;;;7.60;;
68176;SDS011;56478;50.982;7.032;2023-02-13T08:03:10;10.18;;;7.97;;
68176;SDS011;56478;50.982;7.032;2023-02-13T08:05:36;10.23;;;6.93;;
68176;SDS011;56478;50.982;7.032;2023-02-13T08:08:02;8.90;;;7.20;;
68176;SDS011;56478;50.982;7.032;2023-02-13T08:10:29;9.10;;;7.53;;
68176;SDS011;56478;50.982;7.032;2023-02-13T08:13:14;8.30;;;7.00;;
68176;SDS011;56478;50.982;7.032;2023-02-13T08:15:40;8.43;;;7.40;;
68176;SDS011;56478;50.982;7.032;2023-02-13T08:18:08;8.38;;;6.65;;
68176;SDS011;56478;50.982;7.032;2023-02-13T08:20:34;7.95;;;7.13;;
68176;SDS011;56478;50.982;7.032;2023-02-13T08:23:03;8.52;;;7.20;;
68176;SDS011;56478;50.982;7.032;2023-02-13T08:25:30;8.90;;;7.10;;
68176;SDS011;56478;50.982;7.032;2023-02-13T08:27:55;7.55;;;6.60;;
68176;SDS011;56478;50.982;7.032;2023-02-13T08:30:22;13.85;;;6.75;;
68176;SDS011;56478;50.982;7.032;2023-02-13T08:32:48;8.43;;;6.70;;
68176;SDS011;56478;50.982;7.032;2023-02-13T08:35:13;9.27;;;7.40;;
68176;SDS011;56478;50.982;7.032;2023-02-13T08:37:39;8.02;;;6.78;;
68176;SDS011;56478;50.982;7.032;2023-02-13T08:40:05;11.32;;;6.70;;
68176;SDS011;56478;50.982;7.032;2023-02-13T08:42:34;6.40;;;5.70;;
68176;SDS011;56478;50.982;7.032;2023-02-13T08:45:00;7.57;;;6.18;;
68176;SDS011;56478;50.982;7.032;2023-02-13T08:47:26;7.72;;;6.60;;
68176;SDS011;56478;50.982;7.032;2023-02-13T08:49:51;7.10;;;6.22;;
68176;SDS011;56478;50.982;7.032;2023-02-13T08:52:17;7.00;;;6.25;;
68176;SDS011;56478;50.982;7.032;2023-02-13T08:54:42;7.65;;;6.32;;
68176;SDS011;56478;50.982;7.032;2023-02-13T08:57:08;7.78;;;6.13;;
68176;SDS011;56478;50.982;7.032;2023-02-13T08:59:34;6.70;;;6.00;;
68176;SDS011;56478;50.982;7.032;2023-02-13T09:01:59;8.25;;;6.90;;
68176;SDS011;56478;50.982;7.032;2023-02-13T09:04:25;9.45;;;6.30;;
68176;SDS011;56478;50.982;7.032;2023-02-13T09:06:52;7.88;;;5.60;;
68176;SDS011;56478;50.982;7.032;2023-02-13T09:09:17;7.03;;;6.30;;
68176;SDS011;56478;50.982;7.032;2023-02-13T09:11:43;7.72;;;6.70;;
68176;SDS011;56478;50.982;7.032;2023-02-13T09:14:09;7.35;;;6.25;;
68176;SDS011;56478;50.982;7.032;2023-02-13T09:16:34;6.82;;;6.13;;
68176;SDS011;56478;50.982;7.032;2023-02-13T09:19:00;6.90;;;6.05;;
68176;SDS011;56478;50.982;7.032;2023-02-13T09:21:25;7.57;;;6.32;;
68176;SDS011;56478;50.982;7.032;2023-02-13T09:23:51;8.32;;;6.53;;
68176;SDS011;56478;50.982;7.032;2023-02-13T09:26:19;6.30;;;5.70;;
68176;SDS011;56478;50.982;7.032;2023-02-13T09:28:44;6.82;;;6.13;;
68176;SDS011;56478;50.982;7.032;2023-02-13T09:33:39;6.57;;;5.97;;
68176;SDS011;56478;50.982;7.032;2023-02-13T09:38:43;6.65;;;5.95;;
68176;SDS011;56478;50.982;7.032;2023-02-13T09:41:17;6.65;;;5.95;;
68176;SDS011;56478;50.982;7.032;2023-02-13T09:46:58;6.45;;;5.82;;
68176;SDS011;56478;50.982;7.032;2023-02-13T09:49:29;6.72;;;6.03;;
68176;SDS011;56478;50.982;7.032;2023-02-13T09:51:58;6.50;;;5.75;;
68176;SDS011;56478;50.982;7.032;2023-02-13T09:54:23;6.82;;;6.13;;
68176;SDS011;56478;50.982;7.032;2023-02-13T09:56:54;10.85;;;6.07;;
68176;SDS011;56478;50.982;7.032;2023-02-13T09:59:33;8.35;;;6.40;;
68176;SDS011;56478;50.982;7.032;2023-02-13T10:07:53;7.20;;;6.40;;
68176;SDS011;56478;50.982;7.032;2023-02-13T10:10:37;6.57;;;5.97;;
68176;SDS011;56478;50.982;7.032;2023-02-13T10:18:51;7.72;;;6.13;;
68176;SDS011;56478;50.982;7.032;2023-02-13T10:21:23;6.13;;;5.55;;
68176;SDS011;56478;50.982;7.032;2023-02-13T10:24:00;6.25;;;5.45;;
68176;SDS011;56478;50.982;7.032;2023-02-13T10:26:31;8.88;;;5.68;;
68176;SDS011;56478;50.982;7.032;2023-02-13T10:32:00;8.13;;;5.38;;
68176;SDS011;56478;50.982;7.032;2023-02-13T10:34:30;5.75;;;4.93;;
68176;SDS011;56478;50.982;7.032;2023-02-13T10:37:01;6.43;;;5.50;;
68176;SDS011;56478;50.982;7.032;2023-02-13T10:39:30;5.78;;;5.28;;
68176;SDS011;56478;50.982;7.032;2023-02-13T10:44:54;5.15;;;4.60;;
68176;SDS011;56478;50.982;7.032;2023-02-13T10:52:43;6.78;;;5.38;;
68176;SDS011;56478;50.982;7.032;2023-02-13T10:58:08;5.75;;;5.10;;
68176;SDS011;56478;50.982;7.032;2023-02-13T11:03:15;5.65;;;5.00;;
68176;SDS011;56478;50.982;7.032;2023-02-13T11:05:43;6.05;;;4.97;;
68176;SDS011;56478;50.982;7.032;2023-02-13T11:08:15;5.20;;;4.70;;
68176;SDS011;56478;50.982;7.032;2023-02-13T11:10:47;5.70;;;5.10;;
68176;SDS011;56478;50.982;7.032;2023-02-13T11:13:18;7.35;;;5.25;;
68176;SDS011;56478;50.982;7.032;2023-02-13T11:18:37;5.85;;;4.97;;
68176;SDS011;56478;50.982;7.032;2023-02-13T11:26:24;7.95;;;5.45;;
68176;SDS011;56478;50.982;7.032;2023-02-13T11:28:59;5.88;;;4.88;;
68176;SDS011;56478;50.982;7.032;2023-02-13T11:31:32;6.93;;;4.80;;
68176;SDS011;56478;50.982;7.032;2023-02-13T11:34:16;11.68;;;5.55;;
68176;SDS011;56478;50.982;7.032;2023-02-13T11:36:45;6.18;;;5.10;;
68176;SDS011;56478;50.982;7.032;2023-02-13T11:39:20;6.40;;;5.43;;
68176;SDS011;56478;50.982;7.032;2023-02-13T11:41:47;5.18;;;4.68;;
68176;SDS011;56478;50.982;7.032;2023-02-13T11:44:26;5.30;;;4.80;;
68176;SDS011;56478;50.982;7.032;2023-02-13T11:46:54;5.40;;;4.90;;
68176;SDS011;56478;50.982;7.032;2023-02-13T11:51:54;5.40;;;4.82;;
68176;SDS011;56478;50.982;7.032;2023-02-13T11:56:59;5.38;;;4.65;;
68176;SDS011;56478;50.982;7.032;2023-02-13T11:59:30;8.68;;;4.90;;
68176;SDS011;56478;50.982;7.032;2023-02-13T12:02:43;5.82;;;4.43;;
68176;SDS011;56478;50.982;7.032;2023-02-13T12:04:49;6.22;;;4.90;;
68176;SDS011;56478;50.982;7.032;2023-02-13T12:09:59;5.25;;;4.70;;
68176;SDS011;56478;50.982;7.032;2023-02-13T12:12:29;4.70;;;4.30;;
68176;SDS011;56478;50.982;7.032;2023-02-13T12:15:00;4.53;;;4.13;;
68176;SDS011;56478;50.982;7.032;2023-02-13T12:17:27;4.97;;;4.32;;
68176;SDS011;56478;50.982;7.032;2023-02-13T12:19:55;6.45;;;4.88;;
68176;SDS011;56478;50.982;7.032;2023-02-13T12:25:13;5.55;;;4.25;;
68176;SDS011;56478;50.982;7.032;2023-02-13T12:36:09;6.00;;;4.15;;
68176;SDS011;56478;50.982;7.032;2023-02-13T12:38:59;4.65;;;4.15;;
68176;SDS011;56478;50.982;7.032;2023-02-13T12:56:13;4.13;;;3.50;;
68176;SDS011;56478;50.982;7.032;2023-02-13T13:07:18;4.10;;;3.70;;
68176;SDS011;56478;50.982;7.032;2023-02-13T13:10:01;5.53;;;3.67;;
68176;SDS011;56478;50.982;7.032;2023-02-13T13:12:39;4.10;;;3.33;;
68176;SDS011;56478;50.982;7.032;2023-02-13T13:15:33;4.82;;;2.90;;
68176;SDS011;56478;50.982;7.032;2023-02-13T13:25:46;3.33;;;2.90;;
68176;SDS011;56478;50.982;7.032;2023-02-13T13:28:14;3.45;;;3.10;;
68176;SDS011;56478;50.982;7.032;2023-02-13T13:31:01;3.38;;;2.90;;
68176;SDS011;56478;50.982;7.032;2023-02-13T13:33:28;3.67;;;2.90;;
68176;SDS011;56478;50.982;7.032;2023-02-13T13:38:57;3.75;;;3.13;;
68176;SDS011;56478;50.982;7.032;2023-02-13T13:52:47;8.70;;;2.90;;
68176;SDS011;56478;50.982;7.032;2023-02-13T13:54:59;3.00;;;2.40;;
68176;SDS011;56478;50.982;7.032;2023-02-13T14:05:27;2.42;;;2.22;;
68176;SDS011;56478;50.982;7.032;2023-02-13T14:07:55;2.90;;;2.35;;
68176;SDS011;56478;50.982;7.032;2023-02-13T14:20:37;2.22;;;2.05;;
68176;SDS011;56478;50.982;7.032;2023-02-13T14:29:11;2.15;;;1.95;;
68176;SDS011;56478;50.982;7.032;2023-02-13T14:31:36;5.43;;;2.42;;
68176;SDS011;56478;50.982;7.032;2023-02-13T14:36:43;2.30;;;2.10;;
68176;SDS011;56478;50.982;7.032;2023-02-13T14:39:32;2.25;;;1.73;;
68176;SDS011;56478;50.982;7.032;2023-02-13T14:42:25;3.22;;;1.80;;
68176;SDS011;56478;50.982;7.032;2023-02-13T14:44:55;3.45;;;2.10;;
68176;SDS011;56478;50.982;7.032;2023-02-13T14:47:28;2.35;;;1.88;;
68176;SDS011;56478;50.982;7.032;2023-02-13T14:49:56;1.95;;;1.70;;
68176;SDS011;56478;50.982;7.032;2023-02-13T14:52:27;1.73;;;1.63;;
68176;SDS011;56478;50.982;7.032;2023-02-13T14:55:00;2.00;;;1.80;;
68176;SDS011;56478;50.982;7.032;2023-02-13T14:58:11;1.65;;;1.55;;
68176;SDS011;56478;50.982;7.032;2023-02-13T15:03:03;1.90;;;1.73;;
68176;SDS011;56478;50.982;7.032;2023-02-13T15:05:35;1.70;;;1.60;;
68176;SDS011;56478;50.982;7.032;2023-02-13T15:08:05;2.55;;;1.80;;
68176;SDS011;56478;50.982;7.032;2023-02-13T15:13:17;6.75;;;2.53;;
68176;SDS011;56478;50.982;7.032;2023-02-13T15:16:07;2.45;;;2.10;;
68176;SDS011;56478;50.982;7.032;2023-02-13T15:21:01;2.00;;;1.90;;
68176;SDS011;56478;50.982;7.032;2023-02-13T15:23:28;2.75;;;1.88;;
68176;SDS011;56478;50.982;7.032;2023-02-13T15:25:56;2.15;;;1.90;;
68176;SDS011;56478;50.982;7.032;2023-02-13T15:28:26;3.33;;;1.60;;
68176;SDS011;56478;50.982;7.032;2023-02-13T15:30:59;3.30;;;1.75;;
68176;SDS011;56478;50.982;7.032;2023-02-13T15:33:33;1.70;;;1.60;;
68176;SDS011;56478;50.982;7.032;2023-02-13T15:36:19;1.60;;;1.50;;
68176;SDS011;56478;50.982;7.032;2023-02-13T15:38:46;1.77;;;1.67;;
68176;SDS011;56478;50.982;7.032;2023-02-13T15:41:15;1.77;;;1.67;;
68176;SDS011;56478;50.982;7.032;2023-02-13T15:43:55;1.80;;;1.70;;
68176;SDS011;56478;50.982;7.032;2023-02-13T15:46:32;1.65;;;1.55;;
68176;SDS011;56478;50.982;7.032;2023-02-13T15:49:00;3.00;;;1.80;;
68176;SDS011;56478;50.982;7.032;2023-02-13T15:51:30;3.30;;;1.70;;
68176;SDS011;56478;50.982;7.032;2023-02-13T15:53:59;1.95;;;1.73;;
68176;SDS011;56478;50.982;7.032;2023-02-13T15:56:26;1.70;;;1.60;;
68176;SDS011;56478;50.982;7.032;2023-02-13T15:58:52;2.80;;;1.50;;
68176;SDS011;56478;50.982;7.032;2023-02-13T16:01:20;2.03;;;1.67;;
68176;SDS011;56478;50.982;7.032;2023-02-13T16:03:48;2.45;;;1.55;;
68176;SDS011;56478;50.982;7.032;2023-02-13T16:06:16;1.88;;;1.77;;
68176;SDS011;56478;50.982;7.032;2023-02-13T16:08:47;1.60;;;1.50;;
68176;SDS011;56478;50.982;7.032;2023-02-13T16:16:20;2.00;;;1.90;;
68176;SDS011;56478;50.982;7.032;2023-02-13T16:18:48;2.13;;;2.03;;
68176;SDS011;56478;50.982;7.032;2023-02-13T16:21:14;2.45;;;1.90;;
68176;SDS011;56478;50.982;7.032;2023-02-13T16:23:43;2.35;;;2.10;;
68176;SDS011;56478;50.982;7.032;2023-02-13T16:26:11;3.17;;;2.00;;
68176;SDS011;56478;50.982;7.032;2023-02-13T16:28:38;1.90;;;1.80;;
68176;SDS011;56478;50.982;7.032;2023-02-13T16:31:04;2.35;;;2.00;;
68176;SDS011;56478;50.982;7.032;2023-02-13T16:33:30;3.20;;;2.10;;
68176;SDS011;56478;50.982;7.032;2023-02-13T16:43:45;2.20;;;2.00;;
68176;SDS011;56478;50.982;7.032;2023-02-13T16:54:24;2.53;;;1.98;;
68176;SDS011;56478;50.982;7.032;2023-02-13T17:02:12;2.78;;;1.88;;
68176;SDS011;56478;50.982;7.032;2023-02-13T17:07:21;1.90;;;1.75;;
68176;SDS011;56478;50.982;7.032;2023-02-13T17:09:53;1.80;;;1.70;;
68176;SDS011;56478;50.982;7.032;2023-02-13T17:12:20;1.98;;;1.88;;
68176;SDS011;56478;50.982;7.032;2023-02-13T17:14:46;1.90;;;1.80;;
68176;SDS011;56478;50.982;7.032;2023-02-13T17:17:13;1.88;;;1.77;;
68176;SDS011;56478;50.982;7.032;2023-02-13T17:19:43;2.30;;;1.90;;
68176;SDS011;56478;50.982;7.032;2023-02-13T17:22:20;1.80;;;1.70;;
68176;SDS011;56478;50.982;7.032;2023-02-13T17:24:51;2.17;;;1.90;;
68176;SDS011;56478;50.982;7.032;2023-02-13T17:27:16;2.72;;;2.17;;
68176;SDS011;56478;50.982;7.032;2023-02-13T17:29:43;4.75;;;2.20;;
68176;SDS011;56478;50.982;7.032;2023-02-13T17:32:10;3.58;;;2.20;;
68176;SDS011;56478;50.982;7.032;2023-02-13T17:34:40;2.53;;;2.33;;
68176;SDS011;56478;50.982;7.032;2023-02-13T17:37:16;3.67;;;2.30;;
68176;SDS011;56478;50.982;7.032;2023-02-13T17:39:52;4.05;;;2.58;;
68176;SDS011;56478;50.982;7.032;2023-02-13T17:42:19;2.60;;;2.13;;
68176;SDS011;56478;50.982;7.032;2023-02-13T17:44:50;3.80;;;2.25;;
68176;SDS011;56478;50.982;7.032;2023-02-13T17:47:17;2.78;;;2.20;;
68176;SDS011;56478;50.982;7.032;2023-02-13T17:49:43;2.42;;;2.22;;
68176;SDS011;56478;50.982;7.032;2023-02-13T17:52:10;2.42;;;2.28;;
68176;SDS011;56478;50.982;7.032;2023-02-13T17:54:40;2.60;;;2.40;;
68176;SDS011;56478;50.982;7.032;2023-02-13T17:57:05;3.28;;;2.80;;
68176;SDS011;56478;50.982;7.032;2023-02-13T17:59:31;2.70;;;2.50;;
68176;SDS011;56478;50.982;7.032;2023-02-13T18:01:56;3.65;;;2.53;;
68176;SDS011;56478;50.982;7.032;2023-02-13T18:04:22;3.28;;;2.70;;
68176;SDS011;56478;50.982;7.032;2023-02-13T18:06:51;3.92;;;2.60;;
68176;SDS011;56478;50.982;7.032;2023-02-13T18:09:17;3.20;;;2.90;;
68176;SDS011;56478;50.982;7.032;2023-02-13T18:11:45;4.10;;;3.15;;
68176;SDS011;56478;50.982;7.032;2023-02-13T18:14:12;3.15;;;2.88;;
68176;SDS011;56478;50.982;7.032;2023-02-13T18:16:38;3.70;;;3.33;;
68176;SDS011;56478;50.982;7.032;2023-02-13T18:19:04;4.30;;;3.42;;
68176;SDS011;56478;50.982;7.032;2023-02-13T18:21:30;4.45;;;3.40;;
68176;SDS011;56478;50.982;7.032;2023-02-13T18:23:56;3.50;;;3.20;;
68176;SDS011;56478;50.982;7.032;2023-02-13T18:26:22;5.00;;;3.28;;